Pagina principale
METAR-TAF:

METAR-TAF

Aeroporti :

Aeroporto Internazionale Sir Seretse Khama

Gaborone, Botswana

latitudine: 24-13S, longitudine: 025-55E, altezza: 1005 m

Osservazione

Il bollettino è stato emesso 49 minuti fa, alle 17:00 UTC
Vento calmo
Temperature 16°C
Umidità 39%
Pressione 1027 hPa
Visibilità 10 km o più
nessuna nube inferiore a 1500 m e nessun cumulonembo

METAR: FBSK 311700Z 00000KT CAVOK 16/02 Q1027 NOSIG

Ora: 19:49 (17:49 UTC)

Previsione

Il bollettino è stato emesso 1 ora e 49 minuti fa, alle 16:00 UTC
Previsione valida dal 31 alle 15 UTC al 01 alle 24 UTC
Vento 5 kt da ovest
Visibilità 10 km o più
nessuna nube inferiore a 1500 m e nessun cumulonembo

TAF: FBSK 311600Z 3115/0124 27005KT CAVOK

Osservazioni e previsioni meteorologiche di più di 4000 aeroporti (messaggi METAR e TAF).

Le stazioni disponibili sono rappresentate dai dischi gialli e rossi sulla carta.

Puntare il mouse per vedere il nome della stazione.

Clicca sopra per visualizzare le osservazioni e previsioni meteorologiche.

Per cambiare la mappa : fare clic sui pulsanti verdi con una croce nera per ingrandire, il pulsante verde con un trattino per diminuire, o sulla freccia verde per le mappe adiacenti.


METAR-TAF: